createdAt,value
2022-10-08T00:02:20.420Z,75.52
2022-10-08T00:04:52.756Z,74.23
2022-10-08T00:07:25.235Z,72.69
2022-10-08T00:09:57.543Z,71.42
2022-10-08T00:12:30.506Z,71.40
2022-10-08T00:15:07.873Z,71.90
2022-10-08T00:17:40.151Z,72.87
2022-10-08T00:20:12.915Z,73.07
2022-10-08T00:22:45.479Z,73.38
2022-10-08T00:25:18.210Z,72.75
2022-10-08T00:27:51.216Z,73.87
2022-10-08T00:30:23.573Z,74.10
2022-10-08T00:32:59.832Z,73.78
2022-10-08T00:35:37.130Z,74.17
2022-10-08T00:38:09.458Z,74.10
2022-10-08T00:40:42.283Z,74.05
2022-10-08T00:43:16.421Z,74.92
2022-10-08T00:45:49.156Z,74.53
2022-10-08T00:48:25.155Z,74.62
2022-10-08T00:50:57.661Z,75.68
2022-10-08T00:53:29.976Z,76.06
2022-10-08T00:56:02.962Z,76.14
2022-10-08T00:58:37.279Z,76.57
2022-10-08T01:01:09.699Z,76.87
2022-10-08T01:03:42.109Z,78.28
2022-10-08T01:06:23.514Z,78.09
2022-10-08T01:09:03.456Z,78.91
2022-10-08T01:11:46.874Z,79.24
2022-10-08T01:14:33.019Z,79.62
2022-10-08T01:17:13.048Z,79.74
2022-10-08T01:20:10.224Z,79.30
2022-10-08T01:23:05.745Z,80.55
2022-10-08T01:25:50.161Z,80.17
2022-10-08T01:28:30.117Z,80.77
2022-10-08T01:31:07.865Z,80.96
2022-10-08T01:33:47.453Z,80.54
2022-10-08T01:36:23.437Z,80.97
2022-10-08T01:39:00.172Z,80.85
2022-10-08T01:41:34.431Z,80.86
2022-10-08T01:44:13.053Z,80.36
2022-10-08T01:46:47.721Z,80.31
2022-10-08T01:49:25.172Z,81.38
2022-10-08T01:52:02.611Z,81.38
2022-10-08T01:54:37.384Z,81.15
2022-10-08T01:57:10.843Z,81.77
2022-10-08T01:59:48.655Z,81.15
2022-10-08T02:02:22.912Z,81.32
2022-10-08T02:04:56.186Z,81.01
2022-10-08T02:07:31.665Z,81.49
2022-10-08T02:10:06.526Z,82.24
2022-10-08T02:12:40.458Z,82.30
2022-10-08T02:15:18.097Z,82.29
2022-10-08T02:17:56.507Z,82.80
2022-10-08T02:20:34.116Z,83.13
2022-10-08T02:23:10.483Z,82.17
2022-10-08T02:25:48.381Z,82.56
2022-10-08T02:28:28.598Z,83.07
2022-10-08T02:31:07.624Z,82.29
2022-10-08T02:33:46.207Z,82.81
2022-10-08T02:36:24.828Z,82.46
2022-10-08T02:39:01.139Z,82.75
2022-10-08T02:41:37.542Z,83.13
2022-10-08T02:44:26.741Z,83.33
2022-10-08T02:47:02.418Z,83.70
2022-10-08T02:49:39.423Z,83.58
2022-10-08T02:52:13.914Z,83.42
2022-10-08T02:54:50.242Z,83.87
2022-10-08T02:57:29.152Z,83.87
2022-10-08T03:00:02.046Z,84.21
2022-10-08T03:02:42.402Z,84.64
2022-10-08T03:05:17.359Z,84.82
2022-10-08T03:07:53.801Z,85.29
2022-10-08T03:10:29.782Z,85.02
2022-10-08T03:13:03.198Z,84.85
2022-10-08T03:15:36.567Z,84.68
2022-10-08T03:18:11.420Z,85.17
2022-10-08T03:20:48.631Z,85.60
2022-10-08T03:23:20.926Z,85.82
2022-10-08T03:25:53.550Z,85.72
2022-10-08T03:28:25.933Z,85.79
2022-10-08T03:30:58.396Z,86.07
2022-10-08T03:33:31.660Z,85.92
2022-10-08T03:36:04.674Z,84.85
2022-10-08T03:38:36.989Z,85.28
2022-10-08T03:41:09.483Z,85.53
2022-10-08T03:43:41.938Z,85.96
2022-10-08T03:46:16.122Z,86.57
2022-10-08T03:48:49.242Z,86.34
2022-10-08T03:51:23.079Z,87.17
2022-10-08T03:53:55.540Z,86.78
2022-10-08T03:56:27.843Z,87.51
2022-10-08T03:59:00.798Z,87.88
2022-10-08T04:01:33.250Z,88.15
2022-10-08T04:04:06.306Z,87.61
2022-10-08T04:06:38.599Z,87.39
2022-10-08T04:09:11.489Z,87.60
2022-10-08T04:11:43.769Z,87.90
2022-10-08T04:14:16.090Z,88.47
2022-10-08T04:16:48.593Z,88.68
2022-10-08T04:19:21.616Z,88.53
2022-10-08T04:21:53.932Z,88.49
2022-10-08T04:24:26.258Z,88.05
2022-10-08T04:26:58.570Z,88.23
2022-10-08T04:29:30.901Z,88.27
2022-10-08T04:32:03.231Z,88.20
2022-10-08T04:34:36.270Z,89.32
2022-10-08T04:37:08.593Z,90.40
2022-10-08T04:39:40.934Z,90.24
2022-10-08T04:42:13.275Z,90.13
2022-10-08T04:44:45.610Z,89.53
2022-10-08T04:47:17.886Z,88.75
2022-10-08T04:49:50.870Z,88.52
2022-10-08T04:52:23.280Z,88.97
2022-10-08T04:54:55.738Z,89.48
2022-10-08T04:57:28.038Z,89.43
2022-10-08T05:00:17.825Z,89.59
2022-10-08T05:02:51.535Z,89.50
2022-10-08T05:05:24.823Z,89.50
2022-10-08T05:07:57.202Z,89.48
2022-10-08T05:10:29.547Z,89.84
2022-10-08T05:13:02.022Z,90.08
2022-10-08T05:15:34.737Z,91.34
2022-10-08T05:18:07.111Z,91.10
2022-10-08T05:20:40.094Z,91.44
2022-10-08T05:23:12.498Z,90.96
2022-10-08T05:25:44.814Z,91.48
2022-10-08T05:28:17.190Z,91.63
2022-10-08T05:30:49.639Z,91.98
2022-10-08T05:33:21.914Z,92.55
2022-10-08T05:35:54.913Z,92.68
2022-10-08T05:38:34.001Z,93.10
2022-10-08T05:41:09.484Z,92.54
2022-10-08T05:43:42.193Z,93.47
2022-10-08T05:46:15.913Z,93.57
2022-10-08T05:48:48.327Z,93.69
2022-10-08T05:51:22.117Z,93.78
2022-10-08T05:53:56.291Z,94.11
2022-10-08T05:56:28.872Z,93.99
2022-10-08T05:59:01.163Z,93.85
2022-10-08T06:01:34.234Z,93.48
2022-10-08T06:04:08.898Z,94.05
2022-10-08T06:06:43.349Z,93.88
2022-10-08T06:09:17.867Z,93.25
2022-10-08T06:11:50.228Z,93.30
2022-10-08T06:14:23.656Z,92.67
2022-10-08T06:16:55.953Z,92.96
2022-10-08T06:19:28.411Z,91.83
2022-10-08T06:22:01.388Z,90.70
2022-10-08T06:24:33.707Z,89.19
2022-10-08T06:27:06.016Z,88.42
2022-10-08T06:29:38.323Z,88.35
2022-10-08T06:32:10.642Z,87.10
2022-10-08T06:34:42.944Z,84.84
2022-10-08T06:37:15.956Z,82.93
2022-10-08T06:39:48.649Z,81.38
2022-10-08T06:42:21.163Z,79.83
2022-10-08T06:44:53.516Z,79.67
2022-10-08T06:47:25.819Z,80.38
2022-10-08T06:49:58.403Z,78.56
2022-10-08T06:52:31.429Z,75.77
2022-10-08T06:55:04.437Z,76.91
2022-10-08T06:57:36.951Z,76.98
2022-10-08T07:00:10.528Z,76.80
2022-10-08T07:02:43.570Z,76.02
2022-10-08T07:05:16.116Z,77.07
2022-10-08T07:07:49.078Z,76.65
2022-10-08T07:10:21.419Z,76.95
2022-10-08T07:12:53.766Z,77.23
2022-10-08T07:15:26.068Z,76.36
2022-10-08T07:17:58.380Z,76.29
2022-10-08T07:20:30.766Z,75.46
2022-10-08T07:23:03.766Z,74.96
2022-10-08T07:25:36.087Z,73.72
2022-10-08T07:28:08.482Z,74.08
2022-10-08T07:30:40.764Z,73.23
2022-10-08T07:33:13.191Z,73.99
2022-10-08T07:35:45.571Z,73.00
2022-10-08T07:38:19.006Z,72.48
2022-10-08T07:40:53.654Z,72.50
2022-10-08T07:43:25.968Z,71.96
2022-10-08T07:45:58.335Z,70.65
2022-10-08T07:48:34.115Z,70.97
2022-10-08T07:51:11.015Z,70.54
2022-10-08T07:53:44.554Z,69.47
2022-10-08T07:56:19.199Z,69.96
2022-10-08T07:58:51.890Z,68.96
2022-10-08T08:01:27.585Z,69.37
2022-10-08T08:04:01.703Z,68.89
2022-10-08T08:06:38.437Z,68.21
2022-10-08T08:09:11.586Z,66.83
2022-10-08T08:11:45.361Z,65.99
2022-10-08T08:14:19.037Z,65.47
2022-10-08T08:16:51.436Z,64.79
2022-10-08T08:19:23.760Z,64.69
2022-10-08T08:21:56.734Z,65.40
2022-10-08T08:24:29.710Z,63.82
2022-10-08T08:27:02.017Z,64.20
2022-10-08T08:29:34.328Z,63.40
2022-10-08T08:32:06.661Z,63.80
2022-10-08T08:34:39.046Z,62.48
2022-10-08T08:37:11.339Z,62.98
2022-10-08T08:39:44.593Z,60.28
2022-10-08T08:42:28.198Z,62.29
2022-10-08T08:45:04.704Z,59.30
2022-10-08T08:47:41.379Z,59.84
2022-10-08T08:50:24.196Z,59.73
2022-10-08T08:52:56.959Z,57.99
2022-10-08T08:55:41.591Z,58.01
2022-10-08T08:58:26.036Z,56.72
2022-10-08T09:01:06.009Z,59.66
2022-10-08T09:03:42.695Z,56.90
2022-10-08T09:06:19.254Z,58.09
2022-10-08T09:08:56.481Z,56.46
2022-10-08T09:11:29.998Z,56.76
2022-10-08T09:14:15.809Z,57.18
2022-10-08T09:16:48.288Z,55.72
2022-10-08T09:19:21.118Z,55.17
2022-10-08T09:21:53.463Z,55.75
2022-10-08T09:24:29.044Z,54.03
2022-10-08T09:27:02.203Z,52.83
2022-10-08T09:29:34.760Z,52.85
2022-10-08T09:32:15.138Z,53.26
2022-10-08T09:34:48.018Z,53.15
2022-10-08T09:37:23.761Z,52.38
2022-10-08T09:40:21.714Z,51.56
2022-10-08T09:43:13.134Z,52.21
2022-10-08T09:45:46.545Z,52.48
2022-10-08T09:48:22.167Z,50.45
2022-10-08T09:51:01.135Z,50.44
2022-10-08T09:53:40.091Z,50.58
2022-10-08T09:56:13.932Z,49.33
2022-10-08T09:58:53.403Z,50.31
2022-10-08T10:01:26.480Z,48.57
2022-10-08T10:04:01.242Z,48.56
2022-10-08T10:06:36.513Z,49.74
2022-10-08T10:09:25.070Z,47.73
2022-10-08T10:12:00.136Z,48.11
2022-10-08T10:14:42.867Z,47.51
2022-10-08T10:17:22.699Z,46.95
2022-10-08T10:19:58.619Z,46.46
2022-10-08T10:22:39.278Z,46.68
2022-10-08T10:25:24.980Z,46.71
2022-10-08T10:28:01.135Z,46.46
2022-10-08T10:30:47.523Z,46.08
2022-10-08T10:33:25.066Z,46.90
2022-10-08T10:36:00.340Z,46.77
2022-10-08T10:38:42.949Z,47.61
2022-10-08T10:41:26.060Z,47.75
2022-10-08T10:44:02.571Z,46.64
2022-10-08T10:46:41.434Z,45.80
2022-10-08T10:49:15.547Z,47.54
2022-10-08T10:52:00.699Z,44.91
2022-10-08T10:54:48.555Z,46.30
2022-10-08T10:57:39.423Z,45.09
2022-10-08T11:00:19.888Z,46.22
2022-10-08T11:02:59.074Z,45.04
2022-10-08T11:05:35.114Z,45.29
2022-10-08T11:08:24.678Z,44.40
2022-10-08T11:11:21.724Z,44.74
2022-10-08T11:14:11.588Z,45.95
2022-10-08T11:16:57.286Z,43.60
2022-10-08T11:19:45.212Z,43.34
2022-10-08T11:22:24.607Z,43.48
2022-10-08T11:25:00.083Z,44.34
2022-10-08T11:27:48.602Z,43.39
2022-10-08T11:30:23.599Z,44.28
2022-10-08T11:32:58.190Z,43.77
2022-10-08T11:35:38.072Z,43.50
2022-10-08T11:38:17.155Z,41.87
2022-10-08T11:40:55.518Z,42.01
2022-10-08T11:43:33.437Z,41.86
2022-10-08T11:46:30.160Z,40.92
2022-10-08T11:49:24.571Z,41.60
2022-10-08T11:52:13.438Z,41.77
2022-10-08T11:54:55.063Z,40.56
2022-10-08T11:57:55.918Z,40.83
2022-10-08T12:00:45.022Z,41.13
2022-10-08T12:03:23.363Z,40.70
2022-10-08T12:05:58.368Z,41.09
2022-10-08T12:08:52.434Z,41.54
2022-10-08T12:11:47.671Z,40.60
2022-10-08T12:14:43.406Z,40.51
2022-10-08T12:17:16.466Z,40.75
2022-10-08T12:20:18.592Z,40.67
2022-10-08T12:23:03.273Z,39.99
2022-10-08T12:25:39.538Z,39.69
2022-10-08T12:28:51.146Z,38.60
2022-10-08T12:31:30.021Z,38.79
2022-10-08T12:34:13.554Z,38.49
2022-10-08T12:37:01.930Z,38.06
2022-10-08T12:39:39.909Z,38.72
2022-10-08T12:42:18.979Z,38.83
2022-10-08T12:45:02.987Z,39.94
2022-10-08T12:47:46.187Z,40.36
2022-10-08T12:50:41.923Z,39.32
2022-10-08T12:53:17.412Z,39.31
2022-10-08T12:55:53.479Z,39.06
2022-10-08T12:58:29.991Z,38.40
2022-10-08T13:01:05.309Z,37.97
2022-10-08T13:03:37.823Z,37.76
2022-10-08T13:06:31.622Z,37.69
2022-10-08T13:09:26.731Z,38.04
2022-10-08T13:12:03.574Z,39.35
2022-10-08T13:14:39.343Z,39.30
2022-10-08T13:17:27.684Z,39.36
2022-10-08T13:20:11.446Z,40.30
2022-10-08T13:22:44.368Z,39.33
2022-10-08T13:25:34.694Z,40.14
2022-10-08T13:28:09.034Z,39.83
2022-10-08T13:30:45.650Z,39.85
2022-10-08T13:33:21.067Z,41.49
2022-10-08T13:35:56.575Z,41.30
2022-10-08T13:38:31.759Z,41.46
2022-10-08T13:41:05.571Z,41.16
2022-10-08T13:43:38.963Z,40.42
2022-10-08T13:46:12.016Z,41.79
2022-10-08T13:48:44.512Z,41.22
2022-10-08T13:51:16.875Z,42.33
2022-10-08T13:53:51.631Z,41.59
2022-10-08T13:56:27.259Z,41.54
2022-10-08T13:58:59.583Z,41.33
2022-10-08T14:01:32.746Z,41.64
2022-10-08T14:04:05.210Z,41.73
2022-10-08T14:06:40.786Z,42.29
2022-10-08T14:09:16.246Z,41.58
2022-10-08T14:11:54.963Z,42.23
2022-10-08T14:14:28.220Z,41.71
2022-10-08T14:17:01.240Z,42.09
2022-10-08T14:19:33.555Z,41.11
2022-10-08T14:22:05.849Z,41.54
2022-10-08T14:24:38.343Z,41.42
2022-10-08T14:27:11.148Z,41.51
2022-10-08T14:29:43.676Z,41.54
2022-10-08T14:32:16.675Z,41.22
2022-10-08T14:34:49.004Z,41.67
2022-10-08T14:37:21.416Z,42.66
2022-10-08T14:39:53.739Z,41.57
2022-10-08T14:42:26.072Z,42.13
2022-10-08T14:44:58.546Z,41.62
2022-10-08T14:47:31.533Z,42.17
2022-10-08T14:50:04.566Z,43.05
2022-10-08T14:52:44.365Z,44.68
2022-10-08T14:55:17.291Z,45.38
2022-10-08T14:57:49.938Z,45.06
2022-10-08T15:00:22.257Z,44.99
2022-10-08T15:02:55.235Z,45.55
2022-10-08T15:05:27.683Z,45.21
2022-10-08T15:08:00.046Z,45.49
2022-10-08T15:10:33.696Z,46.66
2022-10-08T15:13:06.027Z,47.60
2022-10-08T15:15:41.609Z,48.15
2022-10-08T15:18:14.886Z,48.63
2022-10-08T15:20:54.340Z,49.10
2022-10-08T15:23:26.803Z,49.38
2022-10-08T15:26:00.686Z,49.87
2022-10-08T15:28:35.734Z,50.49
2022-10-08T15:31:11.014Z,51.37
2022-10-08T15:33:46.178Z,52.12
2022-10-08T15:36:20.451Z,51.66
2022-10-08T15:38:57.578Z,51.57
2022-10-08T15:41:33.760Z,51.59
2022-10-08T15:44:08.495Z,52.20
2022-10-08T15:46:40.794Z,52.42
2022-10-08T15:49:14.262Z,53.56
2022-10-08T15:51:46.902Z,54.17
2022-10-08T15:54:20.791Z,54.61
2022-10-08T15:56:53.259Z,53.94
2022-10-08T15:59:25.574Z,53.02
2022-10-08T16:01:58.098Z,53.63
2022-10-08T16:04:31.221Z,53.94
2022-10-08T16:07:03.634Z,54.88
2022-10-08T16:09:35.975Z,53.49
2022-10-08T16:12:08.282Z,53.21
2022-10-08T16:14:40.627Z,53.91
2022-10-08T16:17:13.203Z,52.44
2022-10-08T16:19:46.287Z,53.07
2022-10-08T16:22:18.558Z,53.57
2022-10-08T16:24:50.850Z,54.29
2022-10-08T16:27:23.152Z,51.75
2022-10-08T16:29:55.474Z,54.39
2022-10-08T16:32:27.795Z,53.15
2022-10-08T16:35:00.817Z,55.59
2022-10-08T16:37:33.123Z,53.52
2022-10-08T16:40:06.383Z,55.10
2022-10-08T16:42:38.973Z,55.76
2022-10-08T16:45:11.454Z,56.53
2022-10-08T16:47:43.746Z,57.30
2022-10-08T16:50:17.411Z,58.39
2022-10-08T16:52:50.031Z,54.53
2022-10-08T16:55:22.807Z,58.97
2022-10-08T16:57:55.191Z,57.68
2022-10-08T17:00:27.842Z,53.74
2022-10-08T17:03:00.895Z,57.45
2022-10-08T17:05:33.931Z,57.72
2022-10-08T17:08:06.420Z,58.99
2022-10-08T17:10:38.887Z,59.32
2022-10-08T17:13:11.183Z,58.65
2022-10-08T17:15:43.565Z,60.79
2022-10-08T17:18:15.847Z,60.66
2022-10-08T17:20:49.539Z,60.46
2022-10-08T17:23:21.986Z,61.13
2022-10-08T17:25:55.386Z,61.73
2022-10-08T17:28:29.849Z,63.34
2022-10-08T17:31:03.547Z,64.32
2022-10-08T17:33:36.352Z,64.42
2022-10-08T17:36:12.375Z,64.07
2022-10-08T17:38:46.390Z,63.74
2022-10-08T17:41:20.766Z,63.45
2022-10-08T17:43:55.458Z,63.28
2022-10-08T17:46:29.492Z,63.78
2022-10-08T17:49:02.432Z,64.12
2022-10-08T17:51:35.427Z,64.54
2022-10-08T17:54:11.325Z,64.42
2022-10-08T17:56:43.903Z,65.01
2022-10-08T17:59:17.629Z,65.07
2022-10-08T18:01:50.113Z,66.01
2022-10-08T18:04:22.438Z,66.31
2022-10-08T18:06:59.840Z,66.68
2022-10-08T18:09:35.049Z,66.32
2022-10-08T18:12:07.586Z,66.93
2022-10-08T18:14:40.079Z,66.90
2022-10-08T18:17:12.392Z,67.40
2022-10-08T18:19:44.688Z,67.65
2022-10-08T18:22:21.257Z,68.32
2022-10-08T18:24:53.747Z,68.66
2022-10-08T18:27:26.082Z,69.00
2022-10-08T18:29:58.399Z,69.65
2022-10-08T18:32:30.716Z,70.00
2022-10-08T18:35:03.342Z,69.69
2022-10-08T18:37:36.335Z,69.95
2022-10-08T18:40:09.191Z,69.98
2022-10-08T18:42:41.515Z,70.11
2022-10-08T18:45:13.899Z,70.35
2022-10-08T18:47:46.214Z,70.54
2022-10-08T18:50:18.865Z,70.87
2022-10-08T18:52:51.910Z,71.18
2022-10-08T18:55:24.225Z,71.32
2022-10-08T18:57:56.582Z,71.28
2022-10-08T19:00:28.904Z,71.83
2022-10-08T19:03:01.407Z,71.62
2022-10-08T19:05:37.240Z,72.05
2022-10-08T19:08:10.260Z,71.99
2022-10-08T19:10:43.171Z,72.60
2022-10-08T19:13:15.737Z,72.80
2022-10-08T19:15:48.087Z,73.09
2022-10-08T19:18:20.455Z,73.25
2022-10-08T19:20:52.760Z,73.24
2022-10-08T19:23:25.759Z,73.30
2022-10-08T19:25:58.099Z,73.21
2022-10-08T19:28:30.876Z,73.83
2022-10-08T19:31:11.501Z,74.36
2022-10-08T19:33:48.460Z,74.49
2022-10-08T19:36:22.011Z,74.77
2022-10-08T19:38:57.098Z,74.96
2022-10-08T19:41:30.144Z,75.54
2022-10-08T19:44:03.249Z,75.47
2022-10-08T19:46:36.071Z,75.52
2022-10-08T19:49:09.120Z,75.97
2022-10-08T19:51:41.836Z,76.05
2022-10-08T19:54:15.768Z,76.22
2022-10-08T19:56:48.291Z,76.18
2022-10-08T19:59:21.022Z,76.29
2022-10-08T20:01:53.404Z,76.73
2022-10-08T20:04:25.795Z,77.10
2022-10-08T20:07:00.542Z,77.27
2022-10-08T20:09:35.384Z,77.20
2022-10-08T20:12:07.799Z,77.24
2022-10-08T20:14:40.123Z,77.45
2022-10-08T20:17:12.471Z,77.63
2022-10-08T20:19:44.823Z,77.51
2022-10-08T20:22:17.138Z,78.14
2022-10-08T20:24:50.167Z,78.12
2022-10-08T20:27:22.678Z,78.04
2022-10-08T20:29:55.030Z,78.63
2022-10-08T20:32:27.319Z,78.84
2022-10-08T20:34:59.661Z,78.90
2022-10-08T20:37:32.803Z,79.00
2022-10-08T20:40:06.707Z,79.14
2022-10-08T20:42:39.039Z,79.36
2022-10-08T20:45:11.616Z,79.52
2022-10-08T20:47:43.960Z,79.15
2022-10-08T20:50:16.299Z,79.70
2022-10-08T20:52:49.036Z,80.31
2022-10-08T20:55:22.325Z,80.20
2022-10-08T20:57:54.589Z,80.15
2022-10-08T21:00:26.959Z,80.09
2022-10-08T21:02:59.407Z,80.76
2022-10-08T21:05:37.552Z,81.57
2022-10-08T21:08:10.191Z,81.25
2022-10-08T21:10:43.174Z,81.79
2022-10-08T21:13:15.574Z,81.79
2022-10-08T21:15:47.972Z,81.78
2022-10-08T21:18:20.307Z,81.67
2022-10-08T21:20:52.998Z,81.56
2022-10-08T21:23:25.320Z,81.51
2022-10-08T21:26:06.823Z,82.40
2022-10-08T21:28:40.162Z,81.77
2022-10-08T21:31:14.092Z,82.18
2022-10-08T21:33:48.896Z,82.01
2022-10-08T21:36:23.291Z,82.95
2022-10-08T21:38:56.246Z,82.45
2022-10-08T21:41:30.722Z,82.66
2022-10-08T21:44:05.679Z,83.02
2022-10-08T21:46:40.541Z,82.96
2022-10-08T21:49:14.808Z,82.63
2022-10-08T21:51:47.438Z,83.43
2022-10-08T21:54:19.693Z,84.29
2022-10-08T21:56:52.666Z,84.64
2022-10-08T21:59:25.892Z,84.30
2022-10-08T22:01:58.567Z,83.83
2022-10-08T22:04:30.928Z,84.58
2022-10-08T22:07:04.586Z,84.18
2022-10-08T22:09:37.063Z,84.22
2022-10-08T22:12:10.044Z,84.42
2022-10-08T22:14:42.446Z,85.11
2022-10-08T22:17:14.790Z,84.92
2022-10-08T22:19:47.081Z,83.93
2022-10-08T22:22:19.411Z,84.18
2022-10-08T22:24:51.702Z,84.62
2022-10-08T22:27:24.694Z,85.16
2022-10-08T22:29:57.029Z,84.94
2022-10-08T22:32:29.353Z,84.70
2022-10-08T22:35:01.628Z,84.98
2022-10-08T22:37:33.948Z,84.93
2022-10-08T22:40:07.379Z,85.48
2022-10-08T22:42:40.366Z,85.49
2022-10-08T22:45:12.712Z,85.41
2022-10-08T22:47:45.147Z,84.85
2022-10-08T22:50:18.066Z,85.89
2022-10-08T22:52:50.732Z,85.89
2022-10-08T22:55:23.181Z,85.38
2022-10-08T22:57:56.545Z,85.43
2022-10-08T23:00:28.856Z,86.32
2022-10-08T23:03:01.207Z,86.00
2022-10-08T23:05:33.556Z,86.74
2022-10-08T23:08:05.905Z,86.09
2022-10-08T23:10:38.235Z,85.63
2022-10-08T23:13:11.240Z,86.19
2022-10-08T23:15:43.698Z,86.89
2022-10-08T23:18:16.038Z,86.76
2022-10-08T23:20:48.379Z,86.01
2022-10-08T23:23:20.732Z,86.95
2022-10-08T23:25:53.937Z,86.98
2022-10-08T23:28:27.422Z,86.08
2022-10-08T23:31:07.253Z,86.40
2022-10-08T23:33:42.329Z,86.50
2022-10-08T23:36:16.316Z,86.62
2022-10-08T23:38:49.111Z,86.36
2022-10-08T23:41:21.625Z,86.19
2022-10-08T23:43:56.786Z,86.41
2022-10-08T23:46:30.321Z,86.51
2022-10-08T23:49:02.847Z,87.12
2022-10-08T23:51:35.372Z,87.85
2022-10-08T23:54:07.707Z,87.87
2022-10-08T23:56:40.034Z,87.35
2022-10-08T23:59:13.036Z,88.65
